createdAt,value
2023-04-18T00:00:24.730Z,61.88
2023-04-18T00:03:16.470Z,60.70
2023-04-18T00:06:04.176Z,58.61
2023-04-18T00:08:50.460Z,58.95
2023-04-18T00:11:36.501Z,61.40
2023-04-18T00:14:23.349Z,64.25
2023-04-18T00:17:09.975Z,66.56
2023-04-18T00:19:58.311Z,66.35
2023-04-18T00:22:46.441Z,65.27
2023-04-18T00:25:33.045Z,63.80
2023-04-18T00:28:19.275Z,63.15
2023-04-18T00:31:05.648Z,62.37
2023-04-18T00:33:52.157Z,61.99
2023-04-18T00:36:38.555Z,61.81
2023-04-18T00:39:26.130Z,61.01
2023-04-18T00:42:13.045Z,60.52
2023-04-18T00:45:00.973Z,58.16
2023-04-18T00:47:47.835Z,58.22
2023-04-18T00:50:36.591Z,59.74
2023-04-18T00:53:23.435Z,62.40
2023-04-18T00:56:10.560Z,64.58
2023-04-18T00:58:57.326Z,65.72
2023-04-18T01:01:44.598Z,65.01
2023-04-18T01:04:32.404Z,63.30
2023-04-18T01:07:18.916Z,62.61
2023-04-18T01:10:05.954Z,62.28
2023-04-18T01:13:19.616Z,61.90
2023-04-18T01:16:06.884Z,61.38
2023-04-18T01:18:53.533Z,61.00
2023-04-18T01:21:43.346Z,60.80
2023-04-18T01:24:32.745Z,60.58
2023-04-18T01:27:19.738Z,60.14
2023-04-18T01:30:07.667Z,60.00
2023-04-18T01:32:54.425Z,59.89
2023-04-18T01:35:40.765Z,58.26
2023-04-18T01:38:27.165Z,57.76
2023-04-18T01:41:15.511Z,59.83
2023-04-18T01:44:02.213Z,63.53
2023-04-18T01:46:48.486Z,65.80
2023-04-18T01:49:35.620Z,65.70
2023-04-18T01:52:25.478Z,64.07
2023-04-18T01:55:12.264Z,63.79
2023-04-18T01:57:58.490Z,63.57
2023-04-18T02:00:45.328Z,63.29
2023-04-18T02:03:32.101Z,62.82
2023-04-18T02:06:18.832Z,62.11
2023-04-18T02:09:08.056Z,61.73
2023-04-18T02:11:58.651Z,61.55
2023-04-18T02:14:45.007Z,61.42
2023-04-18T02:17:31.369Z,60.44
2023-04-18T02:20:17.629Z,59.62
2023-04-18T02:23:03.744Z,59.52
2023-04-18T02:25:50.285Z,62.10
2023-04-18T02:28:38.526Z,65.34
2023-04-18T02:31:25.464Z,65.72
2023-04-18T02:34:12.508Z,64.72
2023-04-18T02:37:00.153Z,63.89
2023-04-18T02:39:47.183Z,62.97
2023-04-18T02:42:33.836Z,63.56
2023-04-18T02:45:21.193Z,63.60
2023-04-18T02:48:07.313Z,63.37
2023-04-18T02:51:02.769Z,63.10
2023-04-18T02:53:54.328Z,63.79
2023-04-18T02:56:42.658Z,63.56
2023-04-18T02:59:35.476Z,62.85
2023-04-18T03:02:49.608Z,63.36
2023-04-18T03:05:46.638Z,62.65
2023-04-18T03:08:34.515Z,63.14
2023-04-18T03:11:21.677Z,63.13
2023-04-18T03:14:08.442Z,62.30
2023-04-18T03:17:01.228Z,62.40
2023-04-18T03:19:51.958Z,61.19
2023-04-18T03:22:43.583Z,61.52
2023-04-18T03:25:31.518Z,62.00
2023-04-18T03:28:20.068Z,62.48
2023-04-18T03:31:06.832Z,62.56
2023-04-18T03:33:54.852Z,61.44
2023-04-18T03:36:41.419Z,62.26
2023-04-18T03:39:28.668Z,61.43
2023-04-18T03:42:16.172Z,62.78
2023-04-18T03:45:03.587Z,62.40
2023-04-18T03:47:51.373Z,62.75
2023-04-18T03:50:39.442Z,61.93
2023-04-18T03:53:32.465Z,62.69
2023-04-18T03:56:19.097Z,61.75
2023-04-18T03:59:12.564Z,61.54
2023-04-18T04:01:59.686Z,61.39
2023-04-18T04:04:46.859Z,61.87
2023-04-18T04:07:34.665Z,61.93
2023-04-18T04:10:21.298Z,61.02
2023-04-18T04:13:08.139Z,61.70
2023-04-18T04:15:56.887Z,61.46
2023-04-18T04:18:43.604Z,60.75
2023-04-18T04:21:32.086Z,61.43
2023-04-18T04:24:19.905Z,60.91
2023-04-18T04:27:07.626Z,60.61
2023-04-18T04:29:57.469Z,60.71
2023-04-18T04:32:45.858Z,61.08
2023-04-18T04:35:34.274Z,61.22
2023-04-18T04:38:25.063Z,61.32
2023-04-18T04:41:14.417Z,60.67
2023-04-18T04:44:01.284Z,60.42
2023-04-18T04:46:56.951Z,58.07
2023-04-18T04:49:48.944Z,60.11
2023-04-18T04:52:35.741Z,63.49
2023-04-18T04:55:22.844Z,65.40
2023-04-18T04:58:11.462Z,64.00
2023-04-18T05:01:16.276Z,63.23
2023-04-18T05:04:04.217Z,62.09
2023-04-18T05:06:51.072Z,60.89
2023-04-18T05:09:38.960Z,60.76
2023-04-18T05:12:27.098Z,58.97
2023-04-18T05:15:15.949Z,59.31
2023-04-18T05:18:03.052Z,61.52
2023-04-18T05:20:49.952Z,64.67
2023-04-18T05:23:37.385Z,64.04
2023-04-18T05:26:25.260Z,62.14
2023-04-18T05:29:13.110Z,60.74
2023-04-18T05:32:01.850Z,59.45
2023-04-18T05:34:48.754Z,58.06
2023-04-18T05:37:35.264Z,60.87
2023-04-18T05:40:21.667Z,62.14
2023-04-18T05:43:08.064Z,64.58
2023-04-18T05:45:58.263Z,63.37
2023-04-18T05:48:45.008Z,62.34
2023-04-18T05:51:31.491Z,60.28
2023-04-18T05:54:21.005Z,57.23
2023-04-18T05:57:07.864Z,60.48
2023-04-18T05:59:55.993Z,61.86
2023-04-18T06:02:42.664Z,58.77
2023-04-18T06:05:29.490Z,58.22
2023-04-18T06:08:16.188Z,54.48
2023-04-18T06:11:03.311Z,54.80
2023-04-18T06:13:49.331Z,51.56
2023-04-18T06:16:37.119Z,51.40
2023-04-18T06:19:23.660Z,47.34
2023-04-18T06:22:10.037Z,48.32
2023-04-18T06:25:00.052Z,47.91
2023-04-18T06:27:46.250Z,45.90
2023-04-18T06:30:32.321Z,44.83
2023-04-18T06:33:19.045Z,43.35
2023-04-18T06:36:06.749Z,41.29
2023-04-18T06:38:53.215Z,38.75
2023-04-18T06:41:39.464Z,38.19
2023-04-18T06:44:25.827Z,36.91
2023-04-18T06:47:13.214Z,36.37
2023-04-18T06:49:59.485Z,35.10
2023-04-18T06:52:45.919Z,34.00
2023-04-18T06:55:32.574Z,33.26
2023-04-18T06:58:18.646Z,31.05
2023-04-18T07:01:04.826Z,30.79
2023-04-18T07:03:51.291Z,31.22
2023-04-18T07:06:37.783Z,30.64
2023-04-18T07:09:24.308Z,30.05
2023-04-18T07:12:10.869Z,29.90
2023-04-18T07:14:58.052Z,29.60
2023-04-18T07:17:44.549Z,27.91
2023-04-18T07:20:31.903Z,27.91
2023-04-18T07:23:18.331Z,28.14
2023-04-18T07:26:05.130Z,27.52
2023-04-18T07:28:51.897Z,26.94
2023-04-18T07:31:37.988Z,26.64
2023-04-18T07:34:29.679Z,25.88
2023-04-18T07:37:17.804Z,25.20
2023-04-18T07:40:06.594Z,25.19
2023-04-18T07:42:53.106Z,24.69
2023-04-18T07:45:42.541Z,25.11
2023-04-18T07:48:28.831Z,25.42
2023-04-18T07:51:18.497Z,26.77
2023-04-18T07:54:05.334Z,27.26
2023-04-18T07:56:52.087Z,28.51
2023-04-18T07:59:38.673Z,29.23
2023-04-18T08:02:25.106Z,30.35
2023-04-18T08:05:12.048Z,31.73
2023-04-18T08:07:58.861Z,33.05
2023-04-18T08:10:45.766Z,34.08
2023-04-18T08:13:33.304Z,35.08
2023-04-18T08:16:20.632Z,34.31
2023-04-18T08:19:07.272Z,33.47
2023-04-18T08:21:53.920Z,32.74
2023-04-18T08:24:46.426Z,31.46
2023-04-18T08:27:38.034Z,30.22
2023-04-18T08:30:26.363Z,30.34
2023-04-18T08:33:12.790Z,30.43
2023-04-18T08:35:59.326Z,30.24
2023-04-18T08:38:46.125Z,29.82
2023-04-18T08:41:39.816Z,29.69
2023-04-18T08:44:30.238Z,29.07
2023-04-18T08:47:16.701Z,28.65
2023-04-18T08:50:06.724Z,28.04
2023-04-18T08:52:54.614Z,27.54
2023-04-18T08:55:41.421Z,27.21
2023-04-18T08:58:31.747Z,26.52
2023-04-18T09:01:17.720Z,26.60
2023-04-18T09:04:05.608Z,26.53
2023-04-18T09:06:52.694Z,26.59
2023-04-18T09:09:54.630Z,26.96
2023-04-18T09:12:52.239Z,26.79
2023-04-18T09:15:38.941Z,27.18
2023-04-18T09:18:26.867Z,27.75
2023-04-18T09:21:21.014Z,27.40
2023-04-18T09:24:23.483Z,27.23
2023-04-18T09:27:13.845Z,27.17
2023-04-18T09:30:00.644Z,27.49
2023-04-18T09:32:59.426Z,27.19
2023-04-18T09:35:46.529Z,26.67
2023-04-18T09:38:40.498Z,26.17
2023-04-18T09:41:27.055Z,25.89
2023-04-18T09:44:16.277Z,25.79
2023-04-18T09:47:02.763Z,26.20
2023-04-18T09:49:49.320Z,26.78
2023-04-18T09:52:41.526Z,27.17
2023-04-18T09:55:28.860Z,27.75
2023-04-18T09:58:18.995Z,28.29
2023-04-18T10:01:06.974Z,28.53
2023-04-18T10:03:55.195Z,29.42
2023-04-18T10:06:44.813Z,30.66
2023-04-18T10:09:32.805Z,30.98
2023-04-18T10:12:19.487Z,31.35
2023-04-18T10:15:10.600Z,32.04
2023-04-18T10:18:05.757Z,32.23
2023-04-18T10:21:00.892Z,31.78
2023-04-18T10:23:48.762Z,31.21
2023-04-18T10:26:49.543Z,31.43
2023-04-18T10:29:53.269Z,32.16
2023-04-18T10:32:39.895Z,32.50
2023-04-18T10:35:26.452Z,32.39
2023-04-18T10:38:16.808Z,32.31
2023-04-18T10:41:29.638Z,32.55
2023-04-18T10:44:19.086Z,32.82
2023-04-18T10:47:28.720Z,33.42
2023-04-18T10:50:16.856Z,34.31
2023-04-18T10:53:03.289Z,35.22
2023-04-18T10:55:54.759Z,35.91
2023-04-18T10:58:43.683Z,36.41
2023-04-18T11:01:32.869Z,36.56
2023-04-18T11:04:19.933Z,36.93
2023-04-18T11:07:07.112Z,36.90
2023-04-18T11:09:56.588Z,37.04
2023-04-18T11:12:43.150Z,37.58
2023-04-18T11:15:30.981Z,38.25
2023-04-18T11:18:18.007Z,38.91
2023-04-18T11:21:05.169Z,38.86
2023-04-18T11:23:51.695Z,39.27
2023-04-18T11:26:38.249Z,39.44
2023-04-18T11:29:24.883Z,40.13
2023-04-18T11:32:13.608Z,40.58
2023-04-18T11:35:00.040Z,40.67
2023-04-18T11:37:46.136Z,41.10
2023-04-18T11:40:32.612Z,41.44
2023-04-18T11:43:24.911Z,41.68
2023-04-18T11:46:12.815Z,42.03
2023-04-18T11:48:59.352Z,42.37
2023-04-18T11:51:46.849Z,42.79
2023-04-18T11:54:41.077Z,42.99
2023-04-18T11:57:29.725Z,43.57
2023-04-18T12:00:17.619Z,44.01
2023-04-18T12:03:11.851Z,44.39
2023-04-18T12:06:00.662Z,45.18
2023-04-18T12:08:47.169Z,45.90
2023-04-18T12:11:34.405Z,46.69
2023-04-18T12:14:21.716Z,47.55
2023-04-18T12:17:08.029Z,48.11
2023-04-18T12:19:54.963Z,48.73
2023-04-18T12:22:42.812Z,49.23
2023-04-18T12:25:30.204Z,49.42
2023-04-18T12:28:19.409Z,49.47
2023-04-18T12:31:08.440Z,49.67
2023-04-18T12:33:55.113Z,50.25
2023-04-18T12:36:42.379Z,50.60
2023-04-18T12:39:28.666Z,51.01
2023-04-18T12:42:15.250Z,51.46
2023-04-18T12:45:07.230Z,51.58
2023-04-18T12:47:53.685Z,51.86
2023-04-18T12:50:40.347Z,52.25
2023-04-18T12:53:26.847Z,52.41
2023-04-18T12:56:13.118Z,52.86
2023-04-18T12:58:59.095Z,52.82
2023-04-18T13:01:45.407Z,53.20
2023-04-18T13:04:31.843Z,53.66
2023-04-18T13:07:18.816Z,53.69
2023-04-18T13:10:07.709Z,53.73
2023-04-18T13:12:55.262Z,53.65
2023-04-18T13:15:41.975Z,53.55
2023-04-18T13:18:28.362Z,53.61
2023-04-18T13:21:14.578Z,53.35
2023-04-18T13:24:01.760Z,53.58
2023-04-18T13:26:47.828Z,53.59
2023-04-18T13:29:34.320Z,53.99
2023-04-18T13:32:20.917Z,54.42
2023-04-18T13:35:08.324Z,54.44
2023-04-18T13:37:54.726Z,54.74
2023-04-18T13:40:40.950Z,55.14
2023-04-18T13:43:27.252Z,55.94
2023-04-18T13:46:13.989Z,56.54
2023-04-18T13:49:01.871Z,57.09
2023-04-18T13:51:49.915Z,58.09
2023-04-18T13:54:37.095Z,58.51
2023-04-18T13:57:23.750Z,59.01
2023-04-18T14:00:13.325Z,59.44
2023-04-18T14:03:00.055Z,59.68
2023-04-18T14:05:46.469Z,59.65
2023-04-18T14:08:32.969Z,59.73
2023-04-18T14:11:20.482Z,59.47
2023-04-18T14:14:09.641Z,59.32
2023-04-18T14:16:58.627Z,59.14
2023-04-18T14:19:44.754Z,59.15
2023-04-18T14:22:31.061Z,59.00
2023-04-18T14:25:17.794Z,58.81
2023-04-18T14:28:12.843Z,58.85
2023-04-18T14:31:01.425Z,58.74
2023-04-18T14:33:49.014Z,58.74
2023-04-18T14:36:35.570Z,58.80
2023-04-18T14:39:21.980Z,58.75
2023-04-18T14:42:08.870Z,58.82
2023-04-18T14:44:57.240Z,58.88
2023-04-18T14:47:46.295Z,58.76
2023-04-18T14:50:33.142Z,58.55
2023-04-18T14:53:19.790Z,58.41
2023-04-18T14:56:07.003Z,58.48
2023-04-18T14:58:55.025Z,58.57
2023-04-18T15:01:41.291Z,58.63
2023-04-18T15:04:27.892Z,58.55
2023-04-18T15:07:14.771Z,58.54
2023-04-18T15:10:00.905Z,58.82
2023-04-18T15:12:50.433Z,58.53
2023-04-18T15:15:39.155Z,58.13
2023-04-18T15:18:25.958Z,57.51
2023-04-18T15:21:12.693Z,57.13
2023-04-18T15:24:00.438Z,56.92
2023-04-18T15:26:47.468Z,56.48
2023-04-18T15:29:33.978Z,55.92
2023-04-18T15:32:21.792Z,55.66
2023-04-18T15:35:11.340Z,55.23
2023-04-18T15:37:58.125Z,54.66
2023-04-18T15:40:45.931Z,53.35
2023-04-18T15:43:35.510Z,52.48
2023-04-18T15:46:22.816Z,52.06
2023-04-18T15:49:09.679Z,51.93
2023-04-18T15:51:56.289Z,51.48
2023-04-18T15:54:43.453Z,50.97
2023-04-18T15:57:30.792Z,51.00
2023-04-18T16:00:19.755Z,50.72
2023-04-18T16:03:09.318Z,50.58
2023-04-18T16:05:55.953Z,50.63
2023-04-18T16:08:42.367Z,50.60
2023-04-18T16:11:29.953Z,50.81
2023-04-18T16:14:19.869Z,51.01
2023-04-18T16:17:06.812Z,51.46
2023-04-18T16:19:54.409Z,51.93
2023-04-18T16:22:41.626Z,52.81
2023-04-18T16:25:30.178Z,52.92
2023-04-18T16:28:16.886Z,53.40
2023-04-18T16:31:06.185Z,53.89
2023-04-18T16:33:52.472Z,54.49
2023-04-18T16:36:42.159Z,54.70
2023-04-18T16:39:29.417Z,55.03
2023-04-18T16:42:17.174Z,55.66
2023-04-18T16:45:04.342Z,56.44
2023-04-18T16:47:50.674Z,56.46
2023-04-18T16:50:37.616Z,57.15
2023-04-18T16:53:24.907Z,57.39
2023-04-18T16:56:11.709Z,57.88
2023-04-18T16:59:03.632Z,58.43
2023-04-18T17:01:50.591Z,58.79
2023-04-18T17:04:39.519Z,58.98
2023-04-18T17:07:27.192Z,59.66
2023-04-18T17:10:13.353Z,59.78
2023-04-18T17:13:02.467Z,60.57
2023-04-18T17:15:49.569Z,60.63
2023-04-18T17:18:38.851Z,60.97
2023-04-18T17:21:26.777Z,62.83
2023-04-18T17:24:14.402Z,59.70
2023-04-18T17:27:03.187Z,57.97
2023-04-18T17:29:51.059Z,58.82
2023-04-18T17:32:44.310Z,59.94
2023-04-18T17:35:30.695Z,60.99
2023-04-18T17:38:17.574Z,61.91
2023-04-18T17:41:05.177Z,62.60
2023-04-18T17:43:57.481Z,61.30
2023-04-18T17:46:45.858Z,59.64
2023-04-18T17:49:36.385Z,56.65
2023-04-18T17:52:22.842Z,57.94
2023-04-18T17:55:12.154Z,59.82
2023-04-18T17:57:58.771Z,61.29
2023-04-18T18:00:45.923Z,62.51
2023-04-18T18:03:32.551Z,61.07
2023-04-18T18:06:19.472Z,62.58
2023-04-18T18:09:07.631Z,61.02
2023-04-18T18:11:58.222Z,55.30
2023-04-18T18:14:46.218Z,57.02
2023-04-18T18:17:32.822Z,58.39
2023-04-18T18:20:19.567Z,60.54
2023-04-18T18:23:06.215Z,61.23
2023-04-18T18:25:53.790Z,61.57
2023-04-18T18:28:43.661Z,62.91
2023-04-18T18:31:31.833Z,61.90
2023-04-18T18:34:21.590Z,59.46
2023-04-18T18:37:10.047Z,58.10
2023-04-18T18:39:59.459Z,59.21
2023-04-18T18:42:54.153Z,60.98
2023-04-18T18:45:40.722Z,61.48
2023-04-18T18:48:27.730Z,62.43
2023-04-18T18:51:18.506Z,63.39
2023-04-18T18:54:09.549Z,59.50
2023-04-18T18:56:56.561Z,57.96
2023-04-18T18:59:43.159Z,59.08
2023-04-18T19:02:35.445Z,60.92
2023-04-18T19:05:24.697Z,62.13
2023-04-18T19:08:12.084Z,63.16
2023-04-18T19:11:00.418Z,61.59
2023-04-18T19:13:53.298Z,60.53
2023-04-18T19:16:39.680Z,57.58
2023-04-18T19:19:27.466Z,57.39
2023-04-18T19:22:14.054Z,58.72
2023-04-18T19:25:01.619Z,59.52
2023-04-18T19:27:49.264Z,60.77
2023-04-18T19:30:36.647Z,61.44
2023-04-18T19:33:25.786Z,63.13
2023-04-18T19:36:16.977Z,61.61
2023-04-18T19:39:03.398Z,58.62
2023-04-18T19:41:50.042Z,57.88
2023-04-18T19:44:36.862Z,59.30
2023-04-18T19:47:25.353Z,60.71
2023-04-18T19:50:12.950Z,61.50
2023-04-18T19:53:00.443Z,62.98
2023-04-18T19:55:47.583Z,63.48
2023-04-18T19:58:44.539Z,58.57
2023-04-18T20:01:31.036Z,56.69
2023-04-18T20:04:17.741Z,57.88
2023-04-18T20:07:06.959Z,59.67
2023-04-18T20:09:53.849Z,60.45
2023-04-18T20:12:41.302Z,61.46
2023-04-18T20:15:30.562Z,63.19
2023-04-18T20:18:17.503Z,66.04
2023-04-18T20:21:07.006Z,65.50
2023-04-18T20:23:54.003Z,64.00
2023-04-18T20:26:45.930Z,59.30
2023-04-18T20:29:32.623Z,57.61
2023-04-18T20:32:19.203Z,58.78
2023-04-18T20:35:06.740Z,59.47
2023-04-18T20:37:54.727Z,60.75
2023-04-18T20:40:45.202Z,63.53
2023-04-18T20:43:35.998Z,67.22
2023-04-18T20:46:22.984Z,64.52
2023-04-18T20:49:09.449Z,61.26
2023-04-18T20:51:57.621Z,58.29
2023-04-18T20:54:44.053Z,58.24
2023-04-18T20:57:31.318Z,59.63
2023-04-18T21:00:18.456Z,62.17
2023-04-18T21:03:06.381Z,65.11
2023-04-18T21:05:54.133Z,66.77
2023-04-18T21:08:40.623Z,64.42
2023-04-18T21:11:29.464Z,62.92
2023-04-18T21:14:16.556Z,61.20
2023-04-18T21:17:03.032Z,59.23
2023-04-18T21:19:49.437Z,56.02
2023-04-18T21:22:38.595Z,58.29
2023-04-18T21:25:25.398Z,59.95
2023-04-18T21:28:12.172Z,62.78
2023-04-18T21:30:58.651Z,65.14
2023-04-18T21:33:45.370Z,64.61
2023-04-18T21:36:32.264Z,62.38
2023-04-18T21:39:19.101Z,61.72
2023-04-18T21:42:05.733Z,56.71
2023-04-18T21:44:54.699Z,57.74
2023-04-18T21:47:40.967Z,58.72
2023-04-18T21:50:28.623Z,63.07
2023-04-18T21:53:16.573Z,63.72
2023-04-18T21:56:02.999Z,62.99
2023-04-18T21:58:49.201Z,61.74
2023-04-18T22:01:37.730Z,57.02
2023-04-18T22:04:25.969Z,58.22
2023-04-18T22:07:15.156Z,59.74
2023-04-18T22:10:03.263Z,64.14
2023-04-18T22:12:55.359Z,65.13
2023-04-18T22:15:45.539Z,60.85
2023-04-18T22:18:33.217Z,59.56
2023-04-18T22:21:22.495Z,59.33
2023-04-18T22:24:09.053Z,61.41
2023-04-18T22:26:55.407Z,64.37
2023-04-18T22:29:42.015Z,65.01
2023-04-18T22:32:30.007Z,64.49
2023-04-18T22:35:16.766Z,60.05
2023-04-18T22:38:03.590Z,58.49
2023-04-18T22:40:50.231Z,59.62
2023-04-18T22:43:36.756Z,61.81
2023-04-18T22:46:24.315Z,64.54
2023-04-18T22:49:10.488Z,63.41
2023-04-18T22:51:58.114Z,62.06
2023-04-18T22:54:45.195Z,60.81
2023-04-18T22:57:32.361Z,59.01
2023-04-18T23:00:18.854Z,60.52
2023-04-18T23:03:08.800Z,63.05
2023-04-18T23:05:56.887Z,63.35
2023-04-18T23:08:43.713Z,61.04
2023-04-18T23:11:30.363Z,61.12
2023-04-18T23:14:16.797Z,58.94
2023-04-18T23:17:03.714Z,59.08
2023-04-18T23:19:50.523Z,61.54
2023-04-18T23:22:38.227Z,63.89
2023-04-18T23:25:25.877Z,63.01
2023-04-18T23:28:13.982Z,61.44
2023-04-18T23:30:59.991Z,59.14
2023-04-18T23:33:47.673Z,59.33
2023-04-18T23:36:34.379Z,60.94
2023-04-18T23:39:21.063Z,63.65
2023-04-18T23:42:07.605Z,62.29
2023-04-18T23:44:54.358Z,61.35
2023-04-18T23:47:40.523Z,58.66
2023-04-18T23:50:26.705Z,59.29
2023-04-18T23:53:13.436Z,61.69
2023-04-18T23:55:59.577Z,63.94
2023-04-18T23:58:46.113Z,62.79
